Time,TemperatureF,DewpointF,PressureIn,WindDirection,WindDirectionDegrees,WindSpeedMPH,WindSpeedGustMPH,Humidity,HourlyPrecipIn,Conditions,Clouds,dailyrainin,SoftwareType,DateUTC
2013-05-17 00:03:00,61.5,60.0,30.04,SE,136,0.0,0.0,95,0.00,,,0.00,weatherlink.com 1.10,2013-05-17 05:03:00,
2013-05-17 00:18:00,61.7,60.0,30.04,SE,137,0.0,0.0,95,0.00,,,0.00,weatherlink.com 1.10,2013-05-17 05:18:00,
2013-05-17 00:33:00,61.9,61.0,30.04,SE,137,0.0,0.0,95,0.00,,,0.00,weatherlink.com 1.10,2013-05-17 05:33:00,
2013-05-17 00:48:00,62.0,61.0,30.04,SE,137,0.0,0.0,95,0.00,,,0.00,weatherlink.com 1.10,2013-05-17 05:48:00,
2013-05-17 01:03:00,62.3,61.0,30.04,SE,136,0.0,0.0,95,0.00,,,0.00,weatherlink.com 1.10,2013-05-17 06:03:00,
2013-05-17 01:18:00,62.5,61.0,30.03,SE,137,0.0,0.0,95,0.00,,,0.00,weatherlink.com 1.10,2013-05-17 06:18:00,
2013-05-17 01:33:00,62.5,61.0,30.03,SE,136,0.0,0.0,95,0.00,,,0.00,weatherlink.com 1.10,2013-05-17 06:33:00,
2013-05-17 01:48:00,62.4,61.0,30.03,SE,136,0.0,0.0,95,0.00,,,0.00,weatherlink.com 1.10,2013-05-17 06:48:00,
2013-05-17 02:03:00,62.7,61.0,30.03,SE,137,0.0,0.0,95,0.00,,,0.00,weatherlink.com 1.10,2013-05-17 07:03:00,
2013-05-17 02:18:00,62.7,61.0,30.03,SE,136,0.0,0.0,95,0.00,,,0.00,weatherlink.com 1.10,2013-05-17 07:18:00,
2013-05-17 02:33:00,62.5,61.0,30.04,SE,136,0.0,0.0,94,0.00,,,0.00,weatherlink.com 1.10,2013-05-17 07:33:00,
2013-05-17 02:48:00,62.8,61.0,30.04,SE,136,0.0,0.0,95,0.00,,,0.00,weatherlink.com 1.10,2013-05-17 07:48:00,
2013-05-17 03:03:00,62.7,61.0,30.04,SE,136,0.0,0.0,95,0.00,,,0.00,weatherlink.com 1.10,2013-05-17 08:03:00,
2013-05-17 03:19:00,62.8,61.0,30.05,SE,129,0.0,1.0,95,0.00,,,0.00,weatherlink.com 1.10,2013-05-17 08:19:00,
2013-05-17 03:34:00,63.4,62.0,30.05,East,100,0.0,2.0,95,0.00,,,0.00,weatherlink.com 1.10,2013-05-17 08:34:00,
2013-05-17 03:49:00,63.8,62.0,30.05,East,92,0.0,1.0,94,0.00,,,0.00,weatherlink.com 1.10,2013-05-17 08:49:00,
2013-05-17 04:04:00,63.9,62.0,30.05,East,91,0.0,0.0,93,0.00,,,0.00,weatherlink.com 1.10,2013-05-17 09:04:00,
2013-05-17 04:19:00,63.6,62.0,30.06,East,92,0.0,0.0,94,0.00,,,0.00,weatherlink.com 1.10,2013-05-17 09:19:00,
2013-05-17 04:34:00,63.4,62.0,30.05,East,94,0.0,1.0,94,0.00,,,0.00,weatherlink.com 1.10,2013-05-17 09:34:00,
2013-05-17 04:49:00,63.3,62.0,30.05,SE,138,0.0,1.0,95,0.00,,,0.00,weatherlink.com 1.10,2013-05-17 09:49:00,
2013-05-17 05:04:00,63.5,62.0,30.05,SE,143,0.0,1.0,94,0.00,,,0.00,weatherlink.com 1.10,2013-05-17 10:04:00,
2013-05-17 05:19:00,63.5,62.0,30.06,SE,143,0.0,0.0,94,0.00,,,0.00,weatherlink.com 1.10,2013-05-17 10:19:00,
2013-05-17 05:34:00,63.1,62.0,30.06,SE,143,0.0,0.0,95,0.00,,,0.00,weatherlink.com 1.10,2013-05-17 10:34:00,
2013-05-17 05:49:00,62.7,62.0,30.07,SE,144,0.0,0.0,96,0.00,,,0.00,weatherlink.com 1.10,2013-05-17 10:49:00,
2013-05-17 06:04:00,62.2,61.0,30.07,SE,143,0.0,0.0,96,0.00,,,0.00,weatherlink.com 1.10,2013-05-17 11:04:00,
2013-05-17 06:19:00,61.8,61.0,30.07,SW,215,0.0,0.0,97,0.00,,,0.00,weatherlink.com 1.10,2013-05-17 11:19:00,
2013-05-17 06:34:00,62.1,61.0,30.08,SW,214,0.0,1.0,97,0.00,,,0.00,weatherlink.com 1.10,2013-05-17 11:34:00,
2013-05-17 06:49:00,62.8,62.0,30.08,SE,127,0.0,0.0,97,0.00,,,0.00,weatherlink.com 1.10,2013-05-17 11:49:00,
2013-05-17 07:04:00,63.5,62.0,30.09,SE,127,0.0,1.0,96,0.00,,,0.00,weatherlink.com 1.10,2013-05-17 12:04:00,
2013-05-17 07:19:00,64.6,64.0,30.09,SE,127,0.0,0.0,97,0.00,,,0.00,weatherlink.com 1.10,2013-05-17 12:19:00,
2013-05-17 07:34:00,65.9,64.0,30.09,ESE,111,3.0,3.0,93,0.00,,,0.00,weatherlink.com 1.10,2013-05-17 12:34:00,
2013-05-17 07:49:00,66.2,64.0,30.09,ESE,115,1.0,2.0,92,0.00,,,0.00,weatherlink.com 1.10,2013-05-17 12:49:00,
2013-05-17 08:04:00,67.0,65.0,30.09,SE,140,0.0,1.0,92,0.00,,,0.00,weatherlink.com 1.10,2013-05-17 13:04:00,
2013-05-17 08:19:00,68.5,66.0,30.10,SE,139,0.0,2.0,91,0.00,,,0.00,weatherlink.com 1.10,2013-05-17 13:19:00,
2013-05-17 08:34:00,70.5,67.0,30.10,WSW,256,2.0,4.0,88,0.00,,,0.00,weatherlink.com 1.10,2013-05-17 13:34:00,
2013-05-17 08:49:00,71.9,67.0,30.10,ESE,122,3.0,5.0,85,0.00,,,0.00,weatherlink.com 1.10,2013-05-17 13:49:00,
2013-05-17 09:04:00,73.1,68.0,30.10,ESE,120,2.0,6.0,83,0.00,,,0.00,weatherlink.com 1.10,2013-05-17 14:04:00,
2013-05-17 09:19:00,73.5,68.0,30.10,West,262,2.0,3.0,83,0.00,,,0.00,weatherlink.com 1.10,2013-05-17 14:19:00,
2013-05-17 09:34:00,73.8,68.0,30.10,SE,133,1.0,5.0,81,0.00,,,0.00,weatherlink.com 1.10,2013-05-17 14:34:00,
2013-05-17 09:49:00,74.3,67.0,30.10,SE,124,3.0,6.0,79,0.00,,,0.00,weatherlink.com 1.10,2013-05-17 14:49:00,
2013-05-17 10:04:00,73.7,66.0,30.10,SE,144,4.0,7.0,78,0.00,,,0.00,weatherlink.com 1.10,2013-05-17 15:04:00,
2013-05-17 10:19:00,74.5,67.0,30.09,SE,134,1.0,4.0,78,0.00,,,0.00,weatherlink.com 1.10,2013-05-17 15:19:00,
2013-05-17 10:35:00,75.3,66.0,30.09,ESE,118,3.0,8.0,73,0.00,,,0.00,weatherlink.com 1.10,2013-05-17 15:35:00,
2013-05-17 10:50:00,74.7,67.0,30.10,West,278,3.0,6.0,77,0.00,,,0.00,weatherlink.com 1.10,2013-05-17 15:50:00,
2013-05-17 11:05:00,74.8,67.0,30.10,East,93,1.0,5.0,77,0.00,,,0.00,weatherlink.com 1.10,2013-05-17 16:05:00,
2013-05-17 11:20:00,74.9,66.0,30.10,ESE,105,6.0,8.0,74,0.00,,,0.00,weatherlink.com 1.10,2013-05-17 16:20:00,
2013-05-17 11:35:00,76.4,66.0,30.10,West,264,1.0,6.0,71,0.00,,,0.00,weatherlink.com 1.10,2013-05-17 16:35:00,
2013-05-17 11:50:00,75.4,66.0,30.10,WNW,286,2.0,7.0,73,0.00,,,0.00,weatherlink.com 1.10,2013-05-17 16:50:00,
2013-05-17 12:05:00,75.5,66.0,30.09,East,79,1.0,6.0,73,0.00,,,0.00,weatherlink.com 1.10,2013-05-17 17:05:00,
2013-05-17 12:20:00,76.0,66.0,30.09,WSW,239,1.0,9.0,70,0.00,,,0.00,weatherlink.com 1.10,2013-05-17 17:20:00,
2013-05-17 12:35:00,76.4,66.0,30.09,SSE,149,6.0,9.0,69,0.00,,,0.00,weatherlink.com 1.10,2013-05-17 17:35:00,
2013-05-17 12:50:00,74.6,65.0,30.09,ESE,115,2.0,7.0,71,0.00,,,0.00,weatherlink.com 1.10,2013-05-17 17:50:00,
2013-05-17 13:05:00,74.3,65.0,30.09,SE,135,1.0,6.0,73,0.00,,,0.00,weatherlink.com 1.10,2013-05-17 18:05:00,
2013-05-17 13:20:00,74.3,66.0,30.09,South,169,1.0,5.0,75,0.00,,,0.00,weatherlink.com 1.10,2013-05-17 18:20:00,
2013-05-17 13:35:00,73.3,65.0,30.09,SE,142,1.0,5.0,74,0.00,,,0.00,weatherlink.com 1.10,2013-05-17 18:35:00,
2013-05-17 13:50:00,72.0,65.0,30.07,SE,130,2.0,5.0,78,0.00,,,0.00,weatherlink.com 1.10,2013-05-17 18:50:00,
2013-05-17 14:05:00,71.6,67.0,30.07,SE,131,0.0,1.0,86,0.02,,,0.02,weatherlink.com 1.10,2013-05-17 19:05:00,
2013-05-17 14:20:00,71.2,67.0,30.07,ESE,122,0.0,2.0,86,0.02,,,0.02,weatherlink.com 1.10,2013-05-17 19:20:00,
2013-05-17 14:35:00,71.3,67.0,30.06,SSE,148,1.0,3.0,87,0.02,,,0.02,weatherlink.com 1.10,2013-05-17 19:35:00,
2013-05-17 14:50:00,71.6,67.0,30.05,SE,139,1.0,4.0,86,0.02,,,0.02,weatherlink.com 1.10,2013-05-17 19:50:00,
2013-05-17 15:20:00,71.5,67.0,30.04,SE,133,2.0,3.0,84,0.01,,,0.03,weatherlink.com 1.10,2013-05-17 20:20:00,
2013-05-17 15:35:00,71.5,67.0,30.03,SSW,200,0.0,3.0,84,0.01,,,0.03,weatherlink.com 1.10,2013-05-17 20:35:00,
2013-05-17 15:50:00,71.6,67.0,30.03,SE,124,2.0,4.0,84,0.01,,,0.03,weatherlink.com 1.10,2013-05-17 20:50:00,
2013-05-17 16:05:00,71.3,67.0,30.03,ESE,118,0.0,2.0,86,0.00,,,0.03,weatherlink.com 1.10,2013-05-17 21:05:00,
2013-05-17 16:20:00,70.9,67.0,30.03,SE,138,0.0,2.0,87,0.00,,,0.03,weatherlink.com 1.10,2013-05-17 21:20:00,
2013-05-17 16:35:00,70.4,67.0,30.03,SE,130,1.0,2.0,89,0.00,,,0.03,weatherlink.com 1.10,2013-05-17 21:35:00,
2013-05-17 16:50:00,69.5,67.0,30.03,SE,136,1.0,4.0,90,0.02,,,0.05,weatherlink.com 1.10,2013-05-17 21:50:00,
2013-05-17 17:05:00,69.0,67.0,30.02,SE,134,1.0,4.0,92,0.03,,,0.06,weatherlink.com 1.10,2013-05-17 22:05:00,
2013-05-17 17:20:00,68.6,67.0,30.03,ESE,115,1.0,4.0,93,0.03,,,0.06,weatherlink.com 1.10,2013-05-17 22:20:00,
2013-05-17 17:35:00,68.3,67.0,30.03,SE,141,1.0,1.0,94,0.07,,,0.10,weatherlink.com 1.10,2013-05-17 22:35:00,
2013-05-17 17:50:00,67.6,66.0,30.02,ESE,117,0.0,3.0,95,0.09,,,0.14,weatherlink.com 1.10,2013-05-17 22:50:00,
2013-05-17 18:05:00,67.2,66.0,30.02,ENE,78,0.0,2.0,95,0.09,,,0.15,weatherlink.com 1.10,2013-05-17 23:05:00,
2013-05-17 18:20:00,66.9,66.0,30.03,North,8,0.0,1.0,95,0.12,,,0.18,weatherlink.com 1.10,2013-05-17 23:20:00,
2013-05-17 18:35:00,66.7,65.0,30.04,NW,312,0.0,1.0,95,0.12,,,0.22,weatherlink.com 1.10,2013-05-17 23:35:00,
2013-05-17 18:50:00,66.3,65.0,30.03,SE,142,1.0,3.0,96,0.20,,,0.34,weatherlink.com 1.10,2013-05-17 23:50:00,
2013-05-17 19:05:00,65.9,65.0,30.04,SE,124,4.0,5.0,96,0.32,,,0.47,weatherlink.com 1.10,2013-05-18 00:05:00,
2013-05-17 19:20:00,65.5,64.0,30.01,SE,141,6.0,9.0,96,0.40,,,0.58,weatherlink.com 1.10,2013-05-18 00:20:00,
2013-05-17 19:35:00,65.3,64.0,30.02,South,187,9.0,14.0,96,0.42,,,0.65,weatherlink.com 1.10,2013-05-18 00:35:00,
2013-05-17 19:50:00,65.2,64.0,30.02,SE,132,4.0,12.0,96,0.33,,,0.68,weatherlink.com 1.10,2013-05-18 00:50:00,
2013-05-17 20:05:00,65.2,64.0,30.03,SSE,158,9.0,12.0,96,0.25,,,0.73,weatherlink.com 1.10,2013-05-18 01:05:00,
2013-05-17 20:20:00,65.1,64.0,30.04,SE,138,2.0,9.0,96,0.18,,,0.76,weatherlink.com 1.10,2013-05-18 01:20:00,
2013-05-17 20:35:00,65.0,64.0,30.03,SE,134,4.0,9.0,97,0.13,,,0.78,weatherlink.com 1.10,2013-05-18 01:35:00,
2013-05-17 20:50:00,65.0,64.0,30.04,SSE,150,3.0,6.0,97,0.11,,,0.79,weatherlink.com 1.10,2013-05-18 01:50:00,
2013-05-17 21:05:00,65.0,64.0,30.04,SE,135,3.0,9.0,97,0.07,,,0.80,weatherlink.com 1.10,2013-05-18 02:05:00,
2013-05-17 21:20:00,65.0,64.0,30.05,SE,136,4.0,7.0,97,0.04,,,0.80,weatherlink.com 1.10,2013-05-18 02:20:00,
2013-05-17 21:35:00,65.1,64.0,30.05,ESE,117,1.0,6.0,97,0.02,,,0.80,weatherlink.com 1.10,2013-05-18 02:35:00,
2013-05-17 21:50:00,65.1,64.0,30.05,ESE,107,1.0,5.0,97,0.01,,,0.80,weatherlink.com 1.10,2013-05-18 02:50:00,
2013-05-17 22:05:00,65.0,64.0,30.06,SE,132,2.0,5.0,97,0.00,,,0.80,weatherlink.com 1.10,2013-05-18 03:05:00,
2013-05-17 22:20:00,65.0,64.0,30.06,SE,130,3.0,5.0,97,0.00,,,0.80,weatherlink.com 1.10,2013-05-18 03:20:00,
2013-05-17 22:35:00,65.0,64.0,30.06,WSW,241,0.0,2.0,97,0.01,,,0.81,weatherlink.com 1.10,2013-05-18 03:35:00,
2013-05-17 22:50:00,64.9,64.0,30.05,SSE,158,3.0,5.0,97,0.04,,,0.84,weatherlink.com 1.10,2013-05-18 03:50:00,
2013-05-17 23:05:00,64.9,64.0,30.05,SE,132,1.0,7.0,98,0.04,,,0.84,weatherlink.com 1.10,2013-05-18 04:05:00,
2013-05-17 23:20:00,64.9,64.0,30.05,ESE,120,1.0,4.0,98,0.04,,,0.84,weatherlink.com 1.10,2013-05-18 04:20:00,
2013-05-17 23:35:00,64.9,64.0,30.05,SE,142,1.0,2.0,98,0.02,,,0.84,weatherlink.com 1.10,2013-05-18 04:35:00,
2013-05-17 23:50:00,64.9,64.0,30.05,SSE,158,2.0,4.0,98,0.00,,,0.84,weatherlink.com 1.10,2013-05-18 04:50:00,